Aviation Digital Data Service (ADDS)

Output produced by METARs form (0817 UTC 19 April 2019)
found at http://www.aviationweather.gov/metar/data/
 
METAR text: VTPM 190800Z 25011KT 220V280 9999 FEW025 36/20 Q1006 NOSIG
Conditions at: VTPM (MAE SOT/TAK , TH) observed 0800 UTC 19 April 2019
Temperature: 36.0°C (97°F)
Dewpoint: 20.0°C (68°F) [RH = 39%]
Pressure (altimeter): 29.70 inches Hg (1006.0 mb)
Winds: from the WSW (250 degrees) at 13 MPH (11 knots; 5.7 m/s)
Visibility: 6 or more miles (10+ km)
Ceiling: at least 12,000 feet AGL
Clouds: few clouds at 2500 feet AGL
Weather: no significant weather observed at this time

METAR text: VTPM 190700Z 25011KT 9999 FEW025 35/20 Q1008 NOSIG
Conditions at: VTPM (MAE SOT/TAK , TH) observed 0700 UTC 19 April 2019
Temperature: 35.0°C (95°F)
Dewpoint: 20.0°C (68°F) [RH = 42%]
Pressure (altimeter): 29.76 inches Hg (1008.0 mb)
Winds: from the WSW (250 degrees) at 13 MPH (11 knots; 5.7 m/s)
Visibility: 6 or more miles (10+ km)
Ceiling: at least 12,000 feet AGL
Clouds: few clouds at 2500 feet AGL
Weather: no significant weather observed at this time

METAR text: VTPM 190600Z 25012KT 210V290 9999 FEW025 34/21 Q1009 NOSIG
Conditions at: VTPM (MAE SOT/TAK , TH) observed 0600 UTC 19 April 2019
Temperature: 34.0°C (93°F)
Dewpoint: 21.0°C (70°F) [RH = 47%]
Pressure (altimeter): 29.79 inches Hg (1009.0 mb)
Winds: from the WSW (250 degrees) at 14 MPH (12 knots; 6.2 m/s)
Visibility: 6 or more miles (10+ km)
Ceiling: at least 12,000 feet AGL
Clouds: few clouds at 2500 feet AGL
Weather: no significant weather observed at this time

METAR text: VTPM 190500Z 27010KT 230V300 9999 FEW025 34/20 Q1010 NOSIG
Conditions at: VTPM (MAE SOT/TAK , TH) observed 0500 UTC 19 April 2019
Temperature: 34.0°C (93°F)
Dewpoint: 20.0°C (68°F) [RH = 44%]
Pressure (altimeter): 29.82 inches Hg (1010.0 mb)
Winds: from the W (270 degrees) at 12 MPH (10 knots; 5.1 m/s)
Visibility: 6 or more miles (10+ km)
Ceiling: at least 12,000 feet AGL
Clouds: few clouds at 2500 feet AGL
Weather: no significant weather observed at this time

METAR text: VTPM 190400Z 27009KT 230V300 9999 FEW025 33/20 Q1011 NOSIG
Conditions at: VTPM (MAE SOT/TAK , TH) observed 0400 UTC 19 April 2019
Temperature: 33.0°C (91°F)
Dewpoint: 20.0°C (68°F) [RH = 46%]
Pressure (altimeter): 29.85 inches Hg (1011.0 mb)
Winds: from the W (270 degrees) at 10 MPH (9 knots; 4.6 m/s)
Visibility: 6 or more miles (10+ km)
Ceiling: at least 12,000 feet AGL
Clouds: few clouds at 2500 feet AGL
Weather: no significant weather observed at this time

METAR text: VTPM 190300Z 26007KT 210V300 9000 FEW025 30/22 Q1011 NOSIG
Conditions at: VTPM (MAE SOT/TAK , TH) observed 0300 UTC 19 April 2019
Temperature: 30.0°C (86°F)
Dewpoint: 22.0°C (72°F) [RH = 62%]
Pressure (altimeter): 29.85 inches Hg (1011.0 mb)
Winds: from the W (260 degrees) at 8 MPH (7 knots; 3.6 m/s)
Visibility: 6 miles ( 9 km)
Ceiling: at least 12,000 feet AGL
Clouds: few clouds at 2500 feet AGL
Weather: no significant weather observed at this time

METAR text: VTPM 190200Z 25005KT 190V290 7000 SCT025 BKN080 30/22 Q1011 NOSIG
Conditions at: VTPM (MAE SOT/TAK , TH) observed 0200 UTC 19 April 2019
Temperature: 30.0°C (86°F)
Dewpoint: 22.0°C (72°F) [RH = 62%]
Pressure (altimeter): 29.85 inches Hg (1011.0 mb)
Winds: from the WSW (250 degrees) at 6 MPH (5 knots; 2.6 m/s)
Visibility: 4 miles ( 7 km)
Ceiling: 8000 feet AGL
Clouds: scattered clouds at 2500 feet AGL
broken clouds at 8000 feet AGL
Weather: no significant weather observed at this time

METAR text: VTPM 190100Z VRB01KT 7000 FEW025 SCT080 28/22 Q1010 NOSIG
Conditions at: VTPM (MAE SOT/TAK , TH) observed 0100 UTC 19 April 2019
Temperature: 28.0°C (82°F)
Dewpoint: 22.0°C (72°F) [RH = 70%]
Pressure (altimeter): 29.82 inches Hg (1010.0 mb)
Winds: variable direction winds at 1 MPH (1 knots; 0.5 m/s)
Visibility: 4 miles ( 7 km)
Ceiling: at least 12,000 feet AGL
Clouds: few clouds at 2500 feet AGL
scattered clouds at 8000 feet AGL
Weather: no significant weather observed at this time

METAR text: VTPM 190000Z 00000KT 6000 FEW025 SCT100 26/22 Q1009 NOSIG
Conditions at: VTPM (MAE SOT/TAK , TH) observed 0000 UTC 19 April 2019
Temperature: 26.0°C (79°F)
Dewpoint: 22.0°C (72°F) [RH = 79%]
Pressure (altimeter): 29.79 inches Hg (1009.0 mb)
Winds: calm
Visibility: 4 miles ( 6 km)
Ceiling: at least 12,000 feet AGL
Clouds: few clouds at 2500 feet AGL
scattered clouds at 10000 feet AGL
Weather: no significant weather observed at this time

METAR text: VTPM 182300Z VRB01KT 6000 NSC 27/22 Q1009 NOSIG
Conditions at: VTPM (MAE SOT/TAK , TH) observed 2300 UTC 18 April 2019
Temperature: 27.0°C (81°F)
Dewpoint: 22.0°C (72°F) [RH = 74%]
Pressure (altimeter): 29.79 inches Hg (1009.0 mb)
Winds: variable direction winds at 1 MPH (1 knots; 0.5 m/s)
Visibility: 4 miles ( 6 km)
Ceiling: at least 12,000 feet AGL
Clouds: sky clear below 12,000 feet AGL
Weather: no significant weather observed at this time

METAR text: VTPM 181100Z 26013KT 9999 FEW030 36/19 Q1005 NOSIG
Conditions at: VTPM (MAE SOT/TAK , TH) observed 1100 UTC 18 April 2019
Temperature: 36.0°C (97°F)
Dewpoint: 19.0°C (66°F) [RH = 37%]
Pressure (altimeter): 29.68 inches Hg (1005.0 mb)
Winds: from the W (260 degrees) at 15 MPH (13 knots; 6.7 m/s)
Visibility: 6 or more miles (10+ km)
Ceiling: at least 12,000 feet AGL
Clouds: few clouds at 3000 feet AGL
Weather: no significant weather observed at this time

METAR text: VTPM 181000Z 25012KT 9999 FEW030 37/19 Q1005 NOSIG
Conditions at: VTPM (MAE SOT/TAK , TH) observed 1000 UTC 18 April 2019
Temperature: 37.0°C (99°F)
Dewpoint: 19.0°C (66°F) [RH = 35%]
Pressure (altimeter): 29.68 inches Hg (1005.0 mb)
Winds: from the WSW (250 degrees) at 14 MPH (12 knots; 6.2 m/s)
Visibility: 6 or more miles (10+ km)
Ceiling: at least 12,000 feet AGL
Clouds: few clouds at 3000 feet AGL
Weather: no significant weather observed at this time

METAR text: VTPM 180900Z 25012KT 200V280 9999 FEW030 38/19 Q1006 NOSIG
Conditions at: VTPM (MAE SOT/TAK , TH) observed 0900 UTC 18 April 2019
Temperature: 38.0°C (100°F)
Dewpoint: 19.0°C (66°F) [RH = 33%]
Pressure (altimeter): 29.70 inches Hg (1006.0 mb)
Winds: from the WSW (250 degrees) at 14 MPH (12 knots; 6.2 m/s)
Visibility: 6 or more miles (10+ km)
Ceiling: at least 12,000 feet AGL
Clouds: few clouds at 3000 feet AGL
Weather: no significant weather observed at this time

METAR text: VTPM 180800Z 27010KT 230V300 9999 FEW030 37/19 Q1007 NOSIG
Conditions at: VTPM (MAE SOT/TAK , TH) observed 0800 UTC 18 April 2019
Temperature: 37.0°C (99°F)
Dewpoint: 19.0°C (66°F) [RH = 35%]
Pressure (altimeter): 29.73 inches Hg (1007.0 mb)
Winds: from the W (270 degrees) at 12 MPH (10 knots; 5.1 m/s)
Visibility: 6 or more miles (10+ km)
Ceiling: at least 12,000 feet AGL
Clouds: few clouds at 3000 feet AGL
Weather: no significant weather observed at this time

METAR text: VTPM 180700Z 22006KT 170V280 9999 FEW030 37/20 Q1008 NOSIG
Conditions at: VTPM (MAE SOT/TAK , TH) observed 0700 UTC 18 April 2019
Temperature: 37.0°C (99°F)
Dewpoint: 20.0°C (68°F) [RH = 37%]
Pressure (altimeter): 29.76 inches Hg (1008.0 mb)
Winds: from the SW (220 degrees) at 7 MPH (6 knots; 3.1 m/s)
Visibility: 6 or more miles (10+ km)
Ceiling: at least 12,000 feet AGL
Clouds: few clouds at 3000 feet AGL
Weather: no significant weather observed at this time

METAR text: VTPM 180600Z 24005KT 150V300 9999 FEW030 36/19 Q1009 NOSIG
Conditions at: VTPM (MAE SOT/TAK , TH) observed 0600 UTC 18 April 2019
Temperature: 36.0°C (97°F)
Dewpoint: 19.0°C (66°F) [RH = 37%]
Pressure (altimeter): 29.79 inches Hg (1009.0 mb)
Winds: from the WSW (240 degrees) at 6 MPH (5 knots; 2.6 m/s)
Visibility: 6 or more miles (10+ km)
Ceiling: at least 12,000 feet AGL
Clouds: few clouds at 3000 feet AGL
Weather: no significant weather observed at this time

METAR text: VTPM 180500Z 33004KT 270V080 CAVOK 35/18 Q1011 NOSIG
Conditions at: VTPM (MAE SOT/TAK , TH) observed 0500 UTC 18 April 2019
Temperature: 35.0°C (95°F)
Dewpoint: 18.0°C (64°F) [RH = 37%]
Pressure (altimeter): 29.85 inches Hg (1011.0 mb)
Winds: from the NNW (330 degrees) at 5 MPH (4 knots; 2.1 m/s)
Visibility: 6 or more miles (10+ km)
Ceiling: ceiling and visibility are OK
Clouds: unknown
Weather: no significant weather observed at this time

METAR text: VTPM 180400Z VRB02KT 9000 NSC 34/17 Q1012 NOSIG
Conditions at: VTPM (MAE SOT/TAK , TH) observed 0400 UTC 18 April 2019
Temperature: 34.0°C (93°F)
Dewpoint: 17.0°C (63°F) [RH = 36%]
Pressure (altimeter): 29.88 inches Hg (1012.0 mb)
Winds: variable direction winds at 2 MPH (2 knots; 1.0 m/s)
Visibility: 6 miles ( 9 km)
Ceiling: at least 12,000 feet AGL
Clouds: sky clear below 12,000 feet AGL
Weather: no significant weather observed at this time

METAR text: VTPM 180300Z 25004KT 150V310 8000 NSC 31/18 Q1012 NOSIG
Conditions at: VTPM (MAE SOT/TAK , TH) observed 0300 UTC 18 April 2019
Temperature: 31.0°C (88°F)
Dewpoint: 18.0°C (64°F) [RH = 46%]
Pressure (altimeter): 29.88 inches Hg (1012.0 mb)
Winds: from the WSW (250 degrees) at 5 MPH (4 knots; 2.1 m/s)
Visibility: 5 miles ( 8 km)
Ceiling: at least 12,000 feet AGL
Clouds: sky clear below 12,000 feet AGL
Weather: no significant weather observed at this time

METAR text: VTPM 180200Z VRB02KT 7000 NSC 30/20 Q1012 NOSIG
Conditions at: VTPM (MAE SOT/TAK , TH) observed 0200 UTC 18 April 2019
Temperature: 30.0°C (86°F)
Dewpoint: 20.0°C (68°F) [RH = 55%]
Pressure (altimeter): 29.88 inches Hg (1012.0 mb)
Winds: variable direction winds at 2 MPH (2 knots; 1.0 m/s)
Visibility: 4 miles ( 7 km)
Ceiling: at least 12,000 feet AGL
Clouds: sky clear below 12,000 feet AGL
Weather: no significant weather observed at this time

METAR text: VTPM 180100Z VRB01KT 6000 NSC 28/20 Q1012 NOSIG
Conditions at: VTPM (MAE SOT/TAK , TH) observed 0100 UTC 18 April 2019
Temperature: 28.0°C (82°F)
Dewpoint: 20.0°C (68°F) [RH = 62%]
Pressure (altimeter): 29.88 inches Hg (1012.0 mb)
Winds: variable direction winds at 1 MPH (1 knots; 0.5 m/s)
Visibility: 4 miles ( 6 km)
Ceiling: at least 12,000 feet AGL
Clouds: sky clear below 12,000 feet AGL
Weather: no significant weather observed at this time

METAR text: VTPM 180000Z VRB02KT 6000 NSC 24/19 Q1011 NOSIG
Conditions at: VTPM (MAE SOT/TAK , TH) observed 0000 UTC 18 April 2019
Temperature: 24.0°C (75°F)
Dewpoint: 19.0°C (66°F) [RH = 74%]
Pressure (altimeter): 29.85 inches Hg (1011.0 mb)
Winds: variable direction winds at 2 MPH (2 knots; 1.0 m/s)
Visibility: 4 miles ( 6 km)
Ceiling: at least 12,000 feet AGL
Clouds: sky clear below 12,000 feet AGL
Weather: no significant weather observed at this time

METAR text: VTPM 172300Z 14003KT 6000 NSC 24/19 Q1010 NOSIG
Conditions at: VTPM (MAE SOT/TAK , TH) observed 2300 UTC 17 April 2019
Temperature: 24.0°C (75°F)
Dewpoint: 19.0°C (66°F) [RH = 74%]
Pressure (altimeter): 29.82 inches Hg (1010.0 mb)
Winds: from the SE (140 degrees) at 3 MPH (3 knots; 1.5 m/s)
Visibility: 4 miles ( 6 km)
Ceiling: at least 12,000 feet AGL
Clouds: sky clear below 12,000 feet AGL
Weather: no significant weather observed at this time

Forecast for: VTPM (MAE SOT/TAK , TH)
Text: TAF VTPM 190500Z 1906/2006 27005KT 9999 FEW030
Forecast period: 0600 UTC 19 April 2019 to 0600 UTC 20 April 2019
Forecast type: FROM: standard forecast or significant change
Winds: from the W (270 degrees) at 6 MPH (5 knots; 2.6 m/s)
Visibility: 6 or more miles 10+ km)
Ceiling: at least 12,000 feet AGL
Clouds: few clouds at 3000 feet AGL
Weather: no significant weather forecast for this period